createdAt,value
2022-08-12T00:11:20.915Z,19.7
2022-08-12T00:16:23.434Z,19.7
2022-08-12T00:21:28.615Z,19.6
2022-08-12T00:26:32.130Z,19.5
2022-08-12T00:31:34.602Z,19.5
2022-08-12T00:36:39.419Z,19.3
2022-08-12T00:41:46.013Z,19.3
2022-08-12T00:46:48.685Z,19.3
2022-08-12T00:51:53.949Z,19.3
2022-08-12T00:56:58.110Z,19.2
2022-08-12T01:02:13.936Z,19.1
2022-08-12T01:07:06.645Z,19.1
2022-08-12T01:12:09.089Z,19
2022-08-12T01:17:12.162Z,18.8
2022-08-12T01:22:14.683Z,18.8
2022-08-12T01:27:17.067Z,18.8
2022-08-12T01:32:19.722Z,18.6
2022-08-12T01:37:22.268Z,18.6
2022-08-12T01:42:24.982Z,18.5
2022-08-12T01:47:27.349Z,18.4
2022-08-12T01:52:29.631Z,18.4
2022-08-12T01:58:02.323Z,18.2
2022-08-12T02:02:35.270Z,18.1
2022-08-12T02:07:37.631Z,18
2022-08-12T02:12:41.927Z,18
2022-08-12T02:17:58.316Z,17.8
2022-08-12T02:22:51.187Z,17.8
2022-08-12T02:27:53.734Z,17.8
2022-08-12T02:32:58.200Z,17.8
2022-08-12T02:38:00.788Z,17.6
2022-08-12T02:43:03.060Z,17.6
2022-08-12T02:48:05.598Z,17.6
2022-08-12T02:53:07.885Z,17.5
2022-08-12T02:58:16.519Z,17.4
2022-08-12T03:03:14.576Z,17.3
2022-08-12T03:08:34.518Z,17.3
2022-08-12T03:13:19.608Z,17.1
2022-08-12T03:18:30.132Z,17.2
2022-08-12T03:23:32.355Z,17.2
2022-08-12T03:28:28.307Z,17.1
2022-08-12T03:33:30.922Z,17.1
2022-08-12T03:38:33.489Z,17.1
2022-08-12T03:43:35.814Z,17.1
2022-08-12T03:53:38.854Z,17.1
2022-08-12T03:58:41.743Z,17.2
2022-08-12T04:03:44.328Z,17.2
2022-08-12T04:08:46.953Z,17.4
2022-08-12T04:13:49.301Z,17.4
2022-08-12T04:18:51.603Z,17.7
2022-08-12T04:23:53.996Z,18
2022-08-12T04:28:56.882Z,18.4
2022-08-12T04:33:59.529Z,18.6
2022-08-12T04:39:02.145Z,19
2022-08-12T04:44:05.759Z,19.1
2022-08-12T04:49:08.404Z,19.1
2022-08-12T04:54:11.289Z,18.7
2022-08-12T04:59:18.706Z,18.7
2022-08-12T05:04:21.004Z,18.5
2022-08-12T05:09:23.962Z,19.3
2022-08-12T05:14:38.976Z,20
2022-08-12T05:19:45.568Z,20.6
2022-08-12T05:24:48.353Z,20.6
2022-08-12T05:30:10.646Z,21
2022-08-12T05:34:53.208Z,21.2
2022-08-12T05:39:55.978Z,21.2
2022-08-12T05:44:58.646Z,20.7
2022-08-12T05:50:01.666Z,20.7
2022-08-12T05:55:04.029Z,20.7
2022-08-12T06:00:06.435Z,20.7
2022-08-12T06:05:09.146Z,19.9
2022-08-12T06:10:11.704Z,19.7
2022-08-12T06:15:14.265Z,19.7
2022-08-12T06:20:35.529Z,19.9
2022-08-12T06:25:24.500Z,20.9
2022-08-12T06:30:41.064Z,22.7
2022-08-12T06:35:51.907Z,23.6
2022-08-12T06:40:40.174Z,24.1
2022-08-12T06:45:48.239Z,23.8
2022-08-12T06:50:50.590Z,23.7
2022-08-12T06:56:00.102Z,23.1
2022-08-12T07:01:02.998Z,22.7
2022-08-12T07:06:06.040Z,22.5
2022-08-12T07:11:08.566Z,22.5
2022-08-12T07:16:11.238Z,22.5
2022-08-12T07:21:14.109Z,22.7
2022-08-12T07:26:18.903Z,23
2022-08-12T07:31:21.327Z,23
2022-08-12T07:36:24.122Z,23.2
2022-08-12T07:41:26.900Z,23.2
2022-08-12T07:46:29.462Z,23.1
2022-08-12T07:51:32.098Z,23.1
2022-08-12T07:56:34.720Z,22.9
2022-08-12T08:01:38.043Z,23.6
2022-08-12T08:06:40.610Z,23.6
2022-08-12T08:11:43.219Z,24.1
2022-08-12T08:16:45.548Z,24.1
2022-08-12T08:21:48.076Z,25.2
2022-08-12T08:26:50.386Z,25.1
2022-08-12T08:31:52.895Z,26.2
2022-08-12T08:36:57.388Z,27.8
2022-08-12T08:42:21.797Z,29
2022-08-12T08:47:04.400Z,29.1
2022-08-12T08:52:06.988Z,30.8
2022-08-12T08:57:09.589Z,31.3
2022-08-12T09:02:12.399Z,31.9
2022-08-12T09:30:09.411Z,34.1
2022-08-12T09:35:28.242Z,34.2
2022-08-12T09:42:53.903Z,35.2
2022-08-12T09:46:22.489Z,35.1
2022-08-12T09:50:28.170Z,35.2
2022-08-12T09:57:03.491Z,35.8
2022-08-12T10:00:55.211Z,36.7
2022-08-12T10:06:54.544Z,37.1
2022-08-12T10:10:50.885Z,37.4
2022-08-12T10:16:07.668Z,38.7
2022-08-12T10:20:55.554Z,38.9
2022-08-12T10:26:40.579Z,38.9
2022-08-12T10:31:16.182Z,38
2022-08-12T10:36:08.779Z,37.9
2022-08-12T10:41:21.019Z,37.1
2022-08-12T10:46:22.102Z,38.2
2022-08-12T10:52:38.674Z,38.7
2022-08-12T10:56:37.162Z,37.5
2022-08-12T11:04:49.320Z,36.6
2022-08-12T11:08:46.594Z,37.5
2022-08-12T11:13:02.208Z,38.1
2022-08-12T11:17:57.350Z,37.8
2022-08-12T11:22:04.358Z,35.8
2022-08-12T11:27:01.853Z,36.5
2022-08-12T11:32:04.580Z,36.5
2022-08-12T11:37:27.303Z,36
2022-08-12T11:42:15.134Z,33.7
2022-08-12T11:47:17.726Z,33.2
2022-08-12T11:52:58.401Z,33
2022-08-12T12:02:33.562Z,35
2022-08-12T12:08:51.240Z,32.6
2022-08-12T12:12:52.462Z,31.4
2022-08-12T12:17:57.894Z,29.9
2022-08-12T12:23:00.517Z,30.5
2022-08-12T12:28:07.716Z,32.6
2022-08-12T12:33:18.926Z,34.2
2022-08-12T12:38:14.559Z,34.7
2022-08-12T12:43:37.152Z,33.1
2022-08-12T12:48:27.718Z,33.9
2022-08-12T12:54:11.373Z,34
2022-08-12T12:58:35.079Z,34.1
2022-08-12T13:03:51.369Z,33.7
2022-08-12T13:08:48.692Z,33.2
2022-08-12T13:14:31.330Z,31.7
2022-08-12T13:18:48.042Z,31
2022-08-12T13:23:50.850Z,31
2022-08-12T13:28:57.232Z,30.7
2022-08-12T13:34:38.324Z,30.8
2022-08-12T13:39:01.024Z,30.7
2022-08-12T13:44:03.341Z,30.7
2022-08-12T13:49:07.123Z,31.3
2022-08-12T13:54:15.280Z,30.4
2022-08-12T13:59:17.865Z,30.9
2022-08-12T14:04:21.538Z,31.1
2022-08-12T14:09:31.780Z,31.4
2022-08-12T14:14:35.619Z,31.8
2022-08-12T14:19:40.746Z,31.2
2022-08-12T14:24:36.774Z,31
2022-08-12T14:30:23.942Z,31.1
2022-08-12T14:39:53.425Z,30
2022-08-12T14:45:03.118Z,29.6
2022-08-12T15:00:29.666Z,29.8
2022-08-12T15:06:52.437Z,30
2022-08-12T15:15:38.498Z,30.8
2022-08-12T15:20:40.226Z,30.6
2022-08-12T15:25:49.719Z,30.5
2022-08-12T15:30:47.755Z,30.6
2022-08-12T15:35:56.012Z,30.5
2022-08-12T15:41:01.372Z,30.4
2022-08-12T15:46:04.195Z,30.2
2022-08-12T15:51:17.104Z,29.8
2022-08-12T15:56:15.254Z,29.7
2022-08-12T16:01:17.895Z,29.8
2022-08-12T16:07:09.465Z,29.5
2022-08-12T16:11:29.878Z,29.2
2022-08-12T16:16:42.891Z,28.8
2022-08-12T16:22:05.338Z,28.6
2022-08-12T16:26:59.798Z,28.7
2022-08-12T16:31:46.376Z,28.7
2022-08-12T16:36:55.382Z,28.6
2022-08-12T16:42:03.059Z,28.7
2022-08-12T16:48:03.290Z,28.6
2022-08-12T16:52:14.642Z,28.6
2022-08-12T16:57:11.051Z,28.5
2022-08-12T17:02:35.342Z,28.4
2022-08-12T17:07:19.226Z,28.4
2022-08-12T17:12:25.723Z,28
2022-08-12T17:17:50.516Z,27.7
2022-08-12T17:22:32.245Z,27.5
2022-08-12T17:27:38.205Z,27.3
2022-08-12T17:32:53.204Z,27
2022-08-12T17:37:46.099Z,27
2022-08-12T17:42:50.374Z,26.5
2022-08-12T17:48:07.131Z,26.3
2022-08-12T17:52:55.292Z,25.9
2022-08-12T17:57:55.857Z,25.7
2022-08-12T18:03:03.432Z,25.4
2022-08-12T18:08:12.162Z,25.2
2022-08-12T18:13:44.065Z,25.1
2022-08-12T18:18:33.990Z,24.9
2022-08-12T18:23:27.374Z,24.7
2022-08-12T18:28:33.713Z,24.6
2022-08-12T18:33:47.663Z,24.4
2022-08-12T18:38:40.950Z,24.3
2022-08-12T18:44:03.699Z,24.2
2022-08-12T18:48:55.164Z,24.2
2022-08-12T18:54:09.405Z,24.2
2022-08-12T18:59:05.374Z,24.1
2022-08-12T19:04:08.352Z,24.1
2022-08-12T19:09:12.180Z,24
2022-08-12T19:14:17.823Z,23.8
2022-08-12T19:19:20.535Z,23.7
2022-08-12T19:24:27.304Z,23.5
2022-08-12T19:29:45.514Z,23.3
2022-08-12T19:36:24.798Z,23.1
2022-08-12T19:40:33.483Z,23
2022-08-12T19:44:50.649Z,22.9
2022-08-12T19:49:51.195Z,22.8
2022-08-12T19:54:59.373Z,22.8
2022-08-12T20:00:05.976Z,22.7
2022-08-12T20:06:21.524Z,22.7
2022-08-12T20:10:17.757Z,22.6
2022-08-12T20:15:16.830Z,22.6
2022-08-12T20:20:29.283Z,22.5
2022-08-12T20:26:07.407Z,22.5
2022-08-12T20:31:01.121Z,22.5
2022-08-12T20:36:45.081Z,22.5
2022-08-12T20:40:40.432Z,22.4
2022-08-12T20:45:58.759Z,22.5
2022-08-12T20:50:53.376Z,22.4
2022-08-12T20:55:58.945Z,22.4
2022-08-12T21:00:53.031Z,22.3
2022-08-12T21:06:15.544Z,22.2
2022-08-12T21:11:01.324Z,22.1
2022-08-12T21:16:03.593Z,22
2022-08-12T21:21:40.253Z,21.9
2022-08-12T21:26:18.227Z,21.9
2022-08-12T21:32:42.465Z,21.8
2022-08-12T21:36:37.095Z,21.7
2022-08-12T21:41:33.340Z,21.7
2022-08-12T21:46:38.833Z,21.6
2022-08-12T21:51:52.308Z,21.5
2022-08-12T21:56:47.127Z,21.4
2022-08-12T22:01:51.498Z,21.4
2022-08-12T22:06:54.774Z,21.3
2022-08-12T22:12:03.218Z,21.3
2022-08-12T22:17:12.065Z,21.4
2022-08-12T22:22:16.364Z,21.4
2022-08-12T22:27:34.930Z,21.5
2022-08-12T22:32:31.138Z,21.5
2022-08-12T22:37:47.320Z,21.5
2022-08-12T22:42:42.760Z,21.4
2022-08-12T22:47:57.661Z,21.4
2022-08-12T22:52:52.118Z,21.3
2022-08-12T22:57:58.700Z,21.3
2022-08-12T23:03:05.070Z,21.2
2022-08-12T23:08:19.082Z,21.2
2022-08-12T23:13:15.562Z,21.1
2022-08-12T23:18:18.769Z,21
2022-08-12T23:23:24.707Z,21
2022-08-12T23:28:32.937Z,21
2022-08-12T23:34:04.891Z,20.9
2022-08-12T23:38:43.293Z,20.8
2022-08-12T23:43:51.025Z,20.8
2022-08-12T23:48:53.014Z,20.7
2022-08-12T23:53:59.932Z,20.6
2022-08-12T23:59:02.700Z,20.6
